<?xml version="1.0" encoding="UTF-8" standalone="no" ?>
<gpx xmlns="http://www.topografix.com/GPX/1/1" xmlns:xsi="http://www.w3.org/2001/XMLSchema-instance" xsi:schemaLocation="http://www.topografix.com/GPX/1/1 http://www.topografix.com/GPX/1/1/gpx.xsd" version="1.1" creator="VisuGPX - https://www.visugpx.com">
  <metadata>
    <name>Road Trip Vosges</name>
  </metadata>
  <trk>
    <name><![CDATA[5534255-AINSIBREZ]]></name>
    <trkseg>
      <trkpt lat="48.18561" lon="6.94581">
        <ele>455</ele>
        <time>2020-06-01T21:25:44Z</time>
      </trkpt>
      <trkpt lat="48.1884" lon="6.95425">
        <ele>451</ele>
        <time>2020-06-01T21:39:42Z</time>
      </trkpt>
      <trkpt lat="48.18554" lon="6.95957">
        <ele>459</ele>
        <time>2020-06-01T21:49:50Z</time>
      </trkpt>
      <trkpt lat="48.18291" lon="6.97364">
        <ele>470</ele>
        <time>2020-06-01T22:11:30Z</time>
      </trkpt>
      <trkpt lat="48.18497" lon="6.99321">
        <ele>493</ele>
        <time>2020-06-01T22:40:53Z</time>
      </trkpt>
      <trkpt lat="48.18406" lon="7.00231">
        <ele>500</ele>
        <time>2020-06-01T22:54:32Z</time>
      </trkpt>
      <trkpt lat="48.17547" lon="7.0121">
        <ele>531</ele>
        <time>2020-06-01T23:18:32Z</time>
      </trkpt>
      <trkpt lat="48.17227" lon="7.01484">
        <ele>535</ele>
        <time>2020-06-01T23:26:43Z</time>
      </trkpt>
      <trkpt lat="48.16734" lon="7.03046">
        <ele>601</ele>
        <time>2020-06-01T23:52:21Z</time>
      </trkpt>
      <trkpt lat="48.16917" lon="7.03167">
        <ele>594</ele>
        <time>2020-06-01T23:56:48Z</time>
      </trkpt>
      <trkpt lat="48.17501" lon="7.02343">
        <ele>626</ele>
        <time>2020-06-02T00:14:38Z</time>
      </trkpt>
      <trkpt lat="48.17799" lon="7.02446">
        <ele>646</ele>
        <time>2020-06-02T00:21:26Z</time>
      </trkpt>
      <trkpt lat="48.18016" lon="7.02343">
        <ele>659</ele>
        <time>2020-06-02T00:26:30Z</time>
      </trkpt>
      <trkpt lat="48.17536" lon="7.02772">
        <ele>718</ele>
        <time>2020-06-02T00:38:56Z</time>
      </trkpt>
      <trkpt lat="48.17295" lon="7.03149">
        <ele>723</ele>
        <time>2020-06-02T00:46:40Z</time>
      </trkpt>
      <trkpt lat="48.1749" lon="7.03767">
        <ele>744</ele>
        <time>2020-06-02T00:56:49Z</time>
      </trkpt>
      <trkpt lat="48.17169" lon="7.04076">
        <ele>789</ele>
        <time>2020-06-02T01:05:18Z</time>
      </trkpt>
      <trkpt lat="48.16826" lon="7.05089">
        <ele>829</ele>
        <time>2020-06-02T01:22:09Z</time>
      </trkpt>
      <trkpt lat="48.17112" lon="7.05638">
        <ele>861</ele>
        <time>2020-06-02T01:32:29Z</time>
      </trkpt>
      <trkpt lat="48.16688" lon="7.06153">
        <ele>862</ele>
        <time>2020-06-02T01:44:37Z</time>
      </trkpt>
      <trkpt lat="48.16471" lon="7.07939">
        <ele>952</ele>
        <time>2020-06-02T02:11:33Z</time>
      </trkpt>
      <trkpt lat="48.15784" lon="7.07338">
        <ele>982</ele>
        <time>2020-06-02T02:29:14Z</time>
      </trkpt>
      <trkpt lat="48.15108" lon="7.07046">
        <ele>972</ele>
        <time>2020-06-02T02:44:53Z</time>
      </trkpt>
      <trkpt lat="48.14776" lon="7.06754">
        <ele>1004</ele>
        <time>2020-06-02T02:53:27Z</time>
      </trkpt>
      <trkpt lat="48.14032" lon="7.06239">
        <ele>1018</ele>
        <time>2020-06-02T03:11:41Z</time>
      </trkpt>
      <trkpt lat="48.13654" lon="7.06136">
        <ele>984</ele>
        <time>2020-06-02T03:20:13Z</time>
      </trkpt>
      <trkpt lat="48.13676" lon="7.06703">
        <ele>1006</ele>
        <time>2020-06-02T03:28:39Z</time>
      </trkpt>
      <trkpt lat="48.13493" lon="7.06411">
        <ele>1045</ele>
        <time>2020-06-02T03:34:36Z</time>
      </trkpt>
      <trkpt lat="48.13321" lon="7.07029">
        <ele>1079</ele>
        <time>2020-06-02T03:44:32Z</time>
      </trkpt>
      <trkpt lat="48.13298" lon="7.07458">
        <ele>1109</ele>
        <time>2020-06-02T03:50:55Z</time>
      </trkpt>
      <trkpt lat="48.13654" lon="7.08042">
        <ele>1132</ele>
        <time>2020-06-02T04:02:40Z</time>
      </trkpt>
      <trkpt lat="48.13642" lon="7.08814">
        <ele>1148</ele>
        <time>2020-06-02T04:14:08Z</time>
      </trkpt>
      <trkpt lat="48.13539" lon="7.08282">
        <ele>1171</ele>
        <time>2020-06-02T04:22:21Z</time>
      </trkpt>
      <trkpt lat="48.13138" lon="7.07801">
        <ele>1176</ele>
        <time>2020-06-02T04:33:46Z</time>
      </trkpt>
      <trkpt lat="48.12955" lon="7.07218">
        <ele>1161</ele>
        <time>2020-06-02T04:43:20Z</time>
      </trkpt>
      <trkpt lat="48.12347" lon="7.07338">
        <ele>1184</ele>
        <time>2020-06-02T04:56:59Z</time>
      </trkpt>
      <trkpt lat="48.12313" lon="7.06926">
        <ele>1169</ele>
        <time>2020-06-02T05:03:08Z</time>
      </trkpt>
      <trkpt lat="48.1213" lon="7.06548">
        <ele>1178</ele>
        <time>2020-06-02T05:10:04Z</time>
      </trkpt>
      <trkpt lat="48.11373" lon="7.05896">
        <ele>1204</ele>
        <time>2020-06-02T05:29:30Z</time>
      </trkpt>
      <trkpt lat="48.11282" lon="7.06394">
        <ele>1214</ele>
        <time>2020-06-02T05:37:10Z</time>
      </trkpt>
      <trkpt lat="48.11064" lon="7.06531">
        <ele>1221</ele>
        <time>2020-06-02T05:42:25Z</time>
      </trkpt>
      <trkpt lat="48.10829" lon="7.06337">
        <ele>1223</ele>
        <time>2020-06-02T05:48:23Z</time>
      </trkpt>
      <trkpt lat="48.10832" lon="7.06479">
        <ele>1233</ele>
        <time>2020-06-02T05:50:30Z</time>
      </trkpt>
      <trkpt lat="48.10757" lon="7.06577">
        <ele>1250</ele>
        <time>2020-06-02T05:52:43Z</time>
      </trkpt>
      <trkpt lat="48.10677" lon="7.06723">
        <ele>1268</ele>
        <time>2020-06-02T05:55:31Z</time>
      </trkpt>
      <trkpt lat="48.10605" lon="7.06792">
        <ele>1277</ele>
        <time>2020-06-02T05:57:25Z</time>
      </trkpt>
      <trkpt lat="48.10474" lon="7.06775">
        <ele>1277</ele>
        <time>2020-06-02T06:00:20Z</time>
      </trkpt>
      <trkpt lat="48.10327" lon="7.06792">
        <ele>1284</ele>
        <time>2020-06-02T06:03:37Z</time>
      </trkpt>
    </trkseg>
  </trk>
</gpx>